createdAt,value
2023-01-05T00:00:01.183Z,1.17
2023-01-05T00:03:02.471Z,1.20
2023-01-05T00:06:05.105Z,0.95
2023-01-05T00:09:07.272Z,3.25
2023-01-05T00:12:28.304Z,1.30
2023-01-05T00:15:48.464Z,1.40
2023-01-05T00:19:08.331Z,1.25
2023-01-05T00:22:30.800Z,1.50
2023-01-05T00:25:34.134Z,0.88
2023-01-05T00:28:35.405Z,1.40
2023-01-05T00:31:36.721Z,0.73
2023-01-05T00:34:37.981Z,1.27
2023-01-05T00:37:39.406Z,1.25
2023-01-05T00:40:40.804Z,1.30
2023-01-05T00:43:42.035Z,1.08
2023-01-05T00:46:43.274Z,1.15
2023-01-05T00:49:44.516Z,1.30
2023-01-05T00:52:45.775Z,1.08
2023-01-05T00:55:55.625Z,1.15
2023-01-05T00:58:56.910Z,1.15
2023-01-05T01:01:58.318Z,0.85
2023-01-05T01:04:59.639Z,0.98
2023-01-05T01:08:00.977Z,0.65
2023-01-05T01:11:06.130Z,2.17
2023-01-05T01:14:08.426Z,0.88
2023-01-05T01:17:09.698Z,1.60
2023-01-05T01:20:11.010Z,1.33
2023-01-05T01:23:12.346Z,0.88
2023-01-05T01:26:13.654Z,1.38
2023-01-05T01:29:17.322Z,0.77
2023-01-05T01:32:18.679Z,1.63
2023-01-05T01:35:19.977Z,0.60
2023-01-05T01:38:21.625Z,0.50
2023-01-05T01:41:22.862Z,0.57
2023-01-05T01:44:42.894Z,0.40
2023-01-05T01:47:47.424Z,0.40
2023-01-05T01:50:51.343Z,0.60
2023-01-05T01:53:55.657Z,0.40
2023-01-05T01:56:57.009Z,0.60
2023-01-05T01:59:59.326Z,0.50
2023-01-05T02:03:00.581Z,0.77
2023-01-05T02:06:01.922Z,0.40
2023-01-05T02:09:04.282Z,0.40
2023-01-05T02:12:20.875Z,0.75
2023-01-05T02:15:25.004Z,0.50
2023-01-05T02:18:46.495Z,0.50
2023-01-05T02:21:59.721Z,0.70
2023-01-05T02:25:00.942Z,0.68
2023-01-05T02:28:14.563Z,0.47
2023-01-05T02:31:23.471Z,0.50
2023-01-05T02:34:30.666Z,1.00
2023-01-05T02:37:44.671Z,0.55
2023-01-05T02:40:48.647Z,0.75
2023-01-05T02:43:50.017Z,1.27
2023-01-05T02:47:00.096Z,1.25
2023-01-05T02:50:03.793Z,1.27
2023-01-05T02:53:21.360Z,1.30
2023-01-05T02:56:28.719Z,0.85
2023-01-05T02:59:33.321Z,1.38
2023-01-05T03:05:38.686Z,1.73
2023-01-05T03:08:42.137Z,1.25
2023-01-05T03:12:19.205Z,0.80
2023-01-05T03:15:22.456Z,1.05
2023-01-05T03:18:24.679Z,0.60
2023-01-05T03:21:26.866Z,1.13
2023-01-05T03:24:47.130Z,0.43
2023-01-05T03:28:07.693Z,1.20
2023-01-05T03:31:29.702Z,0.73
2023-01-05T03:35:03.527Z,0.52
2023-01-05T03:38:34.040Z,0.68
2023-01-05T03:41:36.100Z,1.58
2023-01-05T03:44:41.310Z,0.60
2023-01-05T03:47:42.577Z,0.43
2023-01-05T03:50:43.846Z,1.27
2023-01-05T03:53:45.157Z,0.70
2023-01-05T03:56:46.553Z,1.27
2023-01-05T03:59:47.814Z,1.58
2023-01-05T04:02:49.224Z,1.52
2023-01-05T04:05:50.644Z,1.45
2023-01-05T04:08:51.871Z,0.70
2023-01-05T04:11:53.157Z,1.23
2023-01-05T04:14:54.439Z,0.50
2023-01-05T04:17:55.683Z,0.88
2023-01-05T04:20:56.951Z,0.85
2023-01-05T04:23:58.348Z,0.63
2023-01-05T04:26:59.637Z,1.85
2023-01-05T04:30:00.883Z,1.45
2023-01-05T04:33:02.257Z,1.42
2023-01-05T04:36:03.589Z,1.40
2023-01-05T04:39:04.823Z,2.22
2023-01-05T04:42:06.046Z,3.72
2023-01-05T04:45:07.514Z,2.83
2023-01-05T04:48:08.848Z,0.90
2023-01-05T04:51:10.136Z,1.42
2023-01-05T04:54:11.421Z,5.40
2023-01-05T04:57:12.716Z,1.77
2023-01-05T05:00:14.103Z,1.52
2023-01-05T05:03:15.421Z,1.30
2023-01-05T05:06:17.443Z,1.02
2023-01-05T05:09:18.711Z,3.78
2023-01-05T05:12:20.616Z,4.30
2023-01-05T05:15:21.926Z,1.55
2023-01-05T05:18:24.509Z,3.63
2023-01-05T05:21:25.820Z,2.95
2023-01-05T05:24:27.078Z,6.32
2023-01-05T05:27:28.375Z,1.90
2023-01-05T05:30:29.736Z,3.72
2023-01-05T05:33:31.025Z,3.78
2023-01-05T05:36:33.086Z,3.67
2023-01-05T05:39:34.466Z,5.55
2023-01-05T05:42:35.742Z,2.15
2023-01-05T05:45:37.144Z,4.00
2023-01-05T05:48:38.399Z,1.90
2023-01-05T05:51:39.703Z,2.17
2023-01-05T05:54:40.948Z,2.80
2023-01-05T05:57:42.240Z,1.73
2023-01-05T06:00:43.635Z,2.38
2023-01-05T06:03:45.037Z,1.48
2023-01-05T06:06:46.352Z,3.47
2023-01-05T06:09:47.661Z,6.50
2023-01-05T06:12:49.065Z,3.00
2023-01-05T06:15:50.461Z,6.80
2023-01-05T06:18:51.726Z,3.13
2023-01-05T06:21:53.016Z,6.28
2023-01-05T06:24:54.932Z,4.60
2023-01-05T06:27:56.236Z,3.13
2023-01-05T06:30:57.495Z,4.38
2023-01-05T06:33:58.729Z,1.98
2023-01-05T06:37:02.384Z,4.03
2023-01-05T06:40:04.344Z,3.05
2023-01-05T06:43:06.018Z,2.85
2023-01-05T06:46:07.304Z,2.72
2023-01-05T06:49:12.028Z,3.35
2023-01-05T06:52:16.698Z,2.85
2023-01-05T06:55:18.511Z,3.65
2023-01-05T06:58:19.776Z,1.60
2023-01-05T07:01:21.214Z,2.28
2023-01-05T07:04:22.581Z,4.22
2023-01-05T07:07:23.849Z,4.82
2023-01-05T07:10:25.102Z,3.83
2023-01-05T07:13:26.342Z,3.70
2023-01-05T07:16:27.677Z,1.77
2023-01-05T07:19:28.962Z,2.47
2023-01-05T07:22:30.862Z,5.03
2023-01-05T07:25:33.107Z,1.58
2023-01-05T07:28:34.682Z,2.53
2023-01-05T07:31:36.028Z,5.03
2023-01-05T07:34:37.313Z,2.35
2023-01-05T07:37:38.664Z,3.72
2023-01-05T07:40:40.001Z,5.45
2023-01-05T07:43:41.409Z,2.25
2023-01-05T07:46:42.683Z,3.42
2023-01-05T07:49:43.956Z,4.28
2023-01-05T07:52:45.205Z,4.35
2023-01-05T07:55:54.768Z,1.92
2023-01-05T07:58:56.019Z,3.13
2023-01-05T08:01:57.527Z,3.17
2023-01-05T08:04:59.216Z,2.10
2023-01-05T08:08:00.505Z,3.55
2023-01-05T08:11:05.730Z,1.52
2023-01-05T08:14:06.996Z,4.82
2023-01-05T08:17:08.692Z,6.22
2023-01-05T08:20:10.250Z,3.75
2023-01-05T08:23:11.505Z,4.47
2023-01-05T08:26:27.098Z,2.22
2023-01-05T08:29:28.559Z,6.28
2023-01-05T08:32:29.803Z,1.67
2023-01-05T08:35:31.501Z,4.07
2023-01-05T08:38:32.768Z,5.45
2023-01-05T08:41:35.692Z,4.65
2023-01-05T08:44:37.043Z,1.48
2023-01-05T08:47:38.320Z,6.38
2023-01-05T08:50:39.573Z,2.65
2023-01-05T08:53:40.834Z,3.45
2023-01-05T08:56:43.928Z,6.82
2023-01-05T08:59:45.165Z,5.32
2023-01-05T09:02:46.658Z,4.30
2023-01-05T09:05:48.563Z,3.72
2023-01-05T09:08:49.870Z,2.60
2023-01-05T09:11:51.123Z,1.52
2023-01-05T09:14:54.307Z,4.32
2023-01-05T09:17:55.646Z,3.85
2023-01-05T09:20:56.971Z,2.17
2023-01-05T09:23:58.255Z,3.75
2023-01-05T09:26:59.586Z,2.40
2023-01-05T09:30:00.871Z,2.78
2023-01-05T09:33:02.107Z,3.03
2023-01-05T09:36:03.519Z,5.00
2023-01-05T09:39:06.062Z,2.78
2023-01-05T09:42:09.650Z,3.85
2023-01-05T09:45:11.463Z,4.78
2023-01-05T09:48:14.399Z,3.67
2023-01-05T09:51:15.705Z,4.22
2023-01-05T09:54:18.022Z,5.45
2023-01-05T09:57:21.497Z,1.95
2023-01-05T10:00:24.114Z,5.22
2023-01-05T10:04:02.603Z,7.38
2023-01-05T10:06:49.064Z,4.22
2023-01-05T10:09:51.068Z,2.67
2023-01-05T10:13:08.339Z,2.83
2023-01-05T10:16:14.319Z,2.03
2023-01-05T10:19:19.612Z,1.13
2023-01-05T10:22:40.530Z,4.18
2023-01-05T10:25:48.983Z,3.22
2023-01-05T10:29:05.192Z,6.07
2023-01-05T10:32:21.398Z,2.88
2023-01-05T10:35:58.961Z,5.13
2023-01-05T10:39:02.430Z,5.85
2023-01-05T10:42:07.939Z,2.58
2023-01-05T10:45:17.261Z,7.13
2023-01-05T10:48:19.994Z,2.50
2023-01-05T10:51:21.743Z,6.53
2023-01-05T10:54:40.611Z,5.28
2023-01-05T10:57:42.263Z,3.95
2023-01-05T11:00:43.562Z,2.83
2023-01-05T11:04:25.241Z,6.18
2023-01-05T11:07:08.088Z,7.05
2023-01-05T11:10:18.489Z,4.25
2023-01-05T11:13:28.547Z,3.88
2023-01-05T11:16:32.405Z,3.53
2023-01-05T11:19:40.987Z,2.33
2023-01-05T11:22:44.297Z,4.15
2023-01-05T11:25:45.657Z,4.65
2023-01-05T11:28:58.949Z,3.60
2023-01-05T11:32:00.296Z,5.18
2023-01-05T11:35:01.581Z,6.10
2023-01-05T11:38:02.949Z,3.03
2023-01-05T11:41:04.446Z,6.00
2023-01-05T11:44:06.004Z,4.78
2023-01-05T11:47:08.057Z,4.90
2023-01-05T11:50:09.939Z,3.22
2023-01-05T11:53:24.999Z,3.30
2023-01-05T11:56:26.714Z,5.05
2023-01-05T11:59:29.711Z,3.20
2023-01-05T12:02:39.936Z,7.50
2023-01-05T12:05:50.487Z,3.53
2023-01-05T12:09:05.791Z,2.40
2023-01-05T12:12:19.017Z,2.83
2023-01-05T12:15:29.505Z,6.70
2023-01-05T12:18:42.074Z,6.35
2023-01-05T12:21:46.341Z,4.10
2023-01-05T12:28:08.915Z,3.60
2023-01-05T12:38:04.698Z,5.88
2023-01-05T12:44:10.096Z,5.65
2023-01-05T12:50:22.541Z,5.95
2023-01-05T12:53:36.036Z,3.72
2023-01-05T12:56:37.385Z,3.35
2023-01-05T12:59:50.242Z,3.88
2023-01-05T13:03:01.595Z,9.02
2023-01-05T13:06:06.790Z,2.55
2023-01-05T13:09:29.436Z,4.93
2023-01-05T13:12:32.120Z,4.72
2023-01-05T13:15:40.328Z,3.15
2023-01-05T13:18:44.830Z,5.45
2023-01-05T13:24:52.933Z,3.75
2023-01-05T13:27:54.292Z,3.42
2023-01-05T13:30:58.344Z,3.55
2023-01-05T13:34:18.513Z,7.85
2023-01-05T13:37:39.428Z,4.60
2023-01-05T13:41:00.858Z,3.22
2023-01-05T13:44:13.605Z,4.00
2023-01-05T13:47:27.091Z,5.05
2023-01-05T13:50:39.542Z,6.28
2023-01-05T13:53:42.013Z,4.43
2023-01-05T13:56:46.483Z,4.22
2023-01-05T14:00:00.627Z,5.97
2023-01-05T14:03:09.141Z,2.75
2023-01-05T14:06:20.301Z,4.70
2023-01-05T14:09:21.549Z,6.28
2023-01-05T14:12:24.867Z,3.92
2023-01-05T14:15:29.308Z,2.88
2023-01-05T14:18:49.050Z,6.32
2023-01-05T14:21:50.386Z,3.03
2023-01-05T14:24:52.431Z,5.55
2023-01-05T14:28:13.709Z,10.57
2023-01-05T14:31:15.316Z,6.75
2023-01-05T14:34:17.998Z,6.78
2023-01-05T14:37:22.369Z,3.65
2023-01-05T14:43:32.410Z,3.85
2023-01-05T14:46:52.164Z,4.05
2023-01-05T14:49:55.259Z,7.53
2023-01-05T14:52:59.315Z,9.73
2023-01-05T14:56:00.591Z,6.35
2023-01-05T14:59:14.570Z,3.25
2023-01-05T15:02:22.368Z,6.25
2023-01-05T15:05:23.924Z,6.25
2023-01-05T15:08:36.238Z,4.38
2023-01-05T15:11:46.627Z,5.50
2023-01-05T15:14:56.979Z,3.85
2023-01-05T15:18:01.446Z,5.72
2023-01-05T15:21:12.940Z,8.77
2023-01-05T15:24:17.329Z,5.82
2023-01-05T15:30:20.918Z,3.15
2023-01-05T15:33:42.966Z,3.25
2023-01-05T15:36:56.040Z,3.25
2023-01-05T15:39:58.131Z,6.18
2023-01-05T15:43:01.753Z,6.68
2023-01-05T15:46:03.326Z,2.67
2023-01-05T15:49:04.700Z,3.75
2023-01-05T15:52:06.144Z,2.72
2023-01-05T15:55:10.557Z,6.43
2023-01-05T16:01:14.795Z,3.53
2023-01-05T16:04:16.164Z,5.00
2023-01-05T16:07:17.410Z,5.32
2023-01-05T16:10:21.294Z,7.28
2023-01-05T16:13:28.243Z,8.13
2023-01-05T16:19:52.120Z,7.60
2023-01-05T16:23:01.048Z,5.20
2023-01-05T16:26:03.252Z,3.83
2023-01-05T16:29:23.550Z,4.25
2023-01-05T16:32:30.201Z,3.88
2023-01-05T16:35:39.752Z,3.92
2023-01-05T16:38:41.643Z,2.92
2023-01-05T16:42:02.916Z,3.85
2023-01-05T16:45:06.553Z,5.82
2023-01-05T16:48:27.843Z,5.75
2023-01-05T16:51:31.977Z,6.15
2023-01-05T16:54:39.383Z,5.10
2023-01-05T16:57:42.006Z,4.25
2023-01-05T17:00:43.336Z,9.57
2023-01-05T17:03:44.627Z,5.63
2023-01-05T17:06:46.844Z,4.95
2023-01-05T17:09:48.280Z,4.88
2023-01-05T17:12:52.714Z,3.83
2023-01-05T17:18:55.237Z,6.38
2023-01-05T17:21:57.953Z,3.80
2023-01-05T17:28:05.459Z,6.65
2023-01-05T17:31:06.783Z,4.00
2023-01-05T17:34:08.104Z,3.55
2023-01-05T17:37:14.518Z,5.03
2023-01-05T17:40:18.418Z,8.55
2023-01-05T17:43:19.722Z,6.40
2023-01-05T17:46:22.027Z,6.40
2023-01-05T17:49:23.444Z,6.50
2023-01-05T17:52:24.702Z,7.93
2023-01-05T17:55:26.453Z,9.75
2023-01-05T17:58:27.715Z,6.43
2023-01-05T18:01:29.189Z,5.47
2023-01-05T18:07:32.823Z,7.88
2023-01-05T18:10:35.711Z,6.13
2023-01-05T18:13:37.032Z,8.45
2023-01-05T18:16:38.336Z,3.53
2023-01-05T18:19:39.657Z,10.88
2023-01-05T18:22:41.436Z,7.68
2023-01-05T18:25:42.749Z,7.85
2023-01-05T18:28:44.041Z,4.90
2023-01-05T18:31:46.760Z,8.20
2023-01-05T18:34:48.036Z,9.02
2023-01-05T18:37:49.395Z,8.02
2023-01-05T18:40:50.754Z,8.23
2023-01-05T18:43:52.046Z,5.03
2023-01-05T18:46:53.401Z,7.78
2023-01-05T18:49:57.118Z,5.50
2023-01-05T18:52:58.392Z,8.88
2023-01-05T18:55:59.661Z,9.43
2023-01-05T18:59:00.952Z,6.93
2023-01-05T19:02:02.358Z,8.23
2023-01-05T19:05:03.809Z,8.38
2023-01-05T19:08:05.257Z,7.03
2023-01-05T19:11:10.575Z,7.22
2023-01-05T19:14:11.934Z,6.25
2023-01-05T19:17:13.255Z,3.67
2023-01-05T19:20:14.569Z,5.85
2023-01-05T19:23:15.882Z,5.93
2023-01-05T19:26:17.226Z,6.47
2023-01-05T19:29:19.095Z,9.43
2023-01-05T19:32:20.355Z,7.40
2023-01-05T19:35:22.667Z,8.27
2023-01-05T19:38:23.922Z,6.38
2023-01-05T19:41:25.174Z,9.57
2023-01-05T19:44:26.506Z,7.00
2023-01-05T19:47:27.759Z,5.47
2023-01-05T19:50:29.040Z,3.28
2023-01-05T19:53:30.588Z,3.40
2023-01-05T19:56:33.352Z,4.65
2023-01-05T19:59:34.622Z,5.60
2023-01-05T20:02:36.001Z,6.78
2023-01-05T20:05:37.467Z,6.90
2023-01-05T20:08:38.862Z,7.72
2023-01-05T20:11:43.421Z,5.15
2023-01-05T20:17:46.161Z,4.93
2023-01-05T20:20:47.433Z,4.82
2023-01-05T20:23:48.739Z,12.45
2023-01-05T20:26:51.188Z,4.88
2023-01-05T20:29:52.480Z,5.22
2023-01-05T20:32:53.821Z,4.15
2023-01-05T20:35:55.207Z,3.70
2023-01-05T20:38:57.318Z,4.63
2023-01-05T20:42:04.737Z,3.85
2023-01-05T20:45:06.566Z,4.03
2023-01-05T20:48:07.864Z,4.18
2023-01-05T20:51:10.819Z,5.43
2023-01-05T20:54:12.588Z,7.93
2023-01-05T20:57:14.023Z,6.88
2023-01-05T21:00:16.512Z,5.53
2023-01-05T21:03:17.810Z,7.03
2023-01-05T21:06:19.589Z,5.22
2023-01-05T21:09:24.487Z,7.78
2023-01-05T21:12:25.757Z,7.78
2023-01-05T21:15:29.131Z,6.82
2023-01-05T21:18:31.115Z,6.43
2023-01-05T21:21:32.560Z,6.00
2023-01-05T21:24:33.937Z,5.35
2023-01-05T21:27:36.346Z,9.68
2023-01-05T21:30:37.857Z,6.38
2023-01-05T21:33:40.300Z,5.78
2023-01-05T21:36:44.891Z,4.85
2023-01-05T21:42:50.260Z,3.97
2023-01-05T21:45:51.541Z,6.30
2023-01-05T21:48:52.862Z,3.08
2023-01-05T21:52:12.847Z,3.78
2023-01-05T21:55:32.999Z,2.58
2023-01-05T21:58:34.381Z,2.72
2023-01-05T22:01:37.782Z,3.08
2023-01-05T22:04:39.100Z,2.55
2023-01-05T22:07:40.367Z,2.85
2023-01-05T22:10:41.647Z,4.53
2023-01-05T22:13:42.917Z,2.85
2023-01-05T22:16:44.337Z,2.33
2023-01-05T22:19:45.661Z,6.97
2023-01-05T22:22:46.983Z,2.60
2023-01-05T22:25:56.298Z,4.45
2023-01-05T22:28:57.556Z,4.88
2023-01-05T22:32:01.179Z,3.50
2023-01-05T22:35:04.654Z,3.55
2023-01-05T22:38:05.933Z,5.07
2023-01-05T22:41:10.155Z,3.90
2023-01-05T22:44:11.421Z,3.03
2023-01-05T22:47:12.772Z,6.25
2023-01-05T22:50:14.008Z,3.75
2023-01-05T22:53:15.325Z,5.50
2023-01-05T22:56:17.544Z,5.38
2023-01-05T22:59:18.899Z,5.47
2023-01-05T23:02:20.203Z,3.38
2023-01-05T23:05:21.532Z,4.20
2023-01-05T23:08:22.836Z,4.63
2023-01-05T23:11:28.432Z,3.70
2023-01-05T23:14:29.770Z,3.63
2023-01-05T23:17:31.057Z,4.65
2023-01-05T23:20:32.332Z,6.30
2023-01-05T23:23:33.834Z,6.43
2023-01-05T23:26:35.129Z,4.32
2023-01-05T23:29:36.761Z,3.88
2023-01-05T23:32:37.987Z,4.57
2023-01-05T23:35:39.273Z,4.32
2023-01-05T23:38:40.532Z,5.07
2023-01-05T23:41:41.850Z,3.05
2023-01-05T23:44:43.149Z,5.38
2023-01-05T23:47:44.627Z,4.00
2023-01-05T23:50:47.405Z,4.05
2023-01-05T23:53:50.122Z,3.67
2023-01-05T23:56:51.392Z,3.97
2023-01-05T23:59:52.673Z,3.47
